LBSF

Sofia Airport

Sofia, Bulgaria
TAF LBSF 241700Z 2418/2518 28012KT 9999 SCT020 BKN050 TEMPO 2418/2420 27016G26KT BECMG 2510/2512 02014KT SCT060
Issued Valid From Valid To
Sep-24 @ 17:00 UTC
(2 hours ago)
Sep-24 @ 18:00 UTC
(an hour ago)
Sep-25 @ 18:00 UTC
(in 23 hours)
Sep-24 @ 18:00 to Sep-25 @ 10:00
TAF LBSF 241700Z 2418/2518 28012KT 9999 SCT020 BKN050
Wind Visibility Clouds
280° at 12 knots 10,000+ meters
  • Scattered at 2,000' AGL
  • Broken at 5,000' AGL
Temporary Sep-24 @ 18:00 to Sep-24 @ 20:00
TEMPO 2418/2420 27016G26KT
Wind
270° at 16 knots
 Gusting to 26 knots
Becoming Sep-25 @ 10:00 to Sep-25 @ 18:00
BECMG 2510/2512 02014KT SCT060
Wind Visibility Clouds
20° at 14 knots 10,000+ meters
  • Scattered at 6,000' AGL
TAF LBSF 241700Z 2418/2518 28012KT 9999 SCT020 BKN050 TEMPO 2418/2420 27016G26KT BECMG 2510/2512 02014KT SCT060
Issued Sep-24 @ 17:00 UTC
(2 hours ago)
Valid From Sep-24 @ 18:00 UTC
(an hour ago)
Valid To Sep-25 @ 18:00 UTC
(in 23 hours)
Sep-24 @ 18:00 - Sep-25 @ 10:00
Wind Visibility
280° at 12 knots 10,000+ meters
Clouds
  • Scattered at 2,000' AGL
  • Broken at 5,000' AGL
Temporary Sep-24 @ 18:00 - Sep-24 @ 20:00
Wind
270° at 16 knots
 Gusting to 26 knots
Becoming Sep-25 @ 10:00 - Sep-25 @ 18:00
Wind Visibility
20° at 14 knots 10,000+ meters
Clouds
  • Scattered at 6,000' AGL